createdAt,value
2019-02-19T00:01:43.186Z,7.10
2019-02-19T00:04:11.482Z,7.87
2019-02-19T00:06:41.076Z,7.50
2019-02-19T00:09:09.367Z,7.20
2019-02-19T00:11:37.665Z,7.37
2019-02-19T00:14:05.936Z,7.17
2019-02-19T00:16:34.286Z,7.23
2019-02-19T00:19:02.635Z,7.20
2019-02-19T00:21:31.186Z,6.97
2019-02-19T00:24:02.295Z,6.70
2019-02-19T00:26:30.557Z,6.10
2019-02-19T00:28:58.853Z,7.00
2019-02-19T00:31:28.670Z,6.73
2019-02-19T00:33:58.572Z,6.50
2019-02-19T00:36:26.876Z,6.50
2019-02-19T00:38:55.170Z,6.77
2019-02-19T00:41:23.496Z,5.83
2019-02-19T00:43:53.389Z,6.07
2019-02-19T00:46:21.667Z,6.20
2019-02-19T00:48:50.009Z,6.97
2019-02-19T00:51:18.278Z,6.97
2019-02-19T00:53:46.557Z,7.10
2019-02-19T00:56:14.828Z,6.30
2019-02-19T00:58:43.138Z,7.30
2019-02-19T01:01:11.429Z,7.00
2019-02-19T01:03:39.687Z,6.77
2019-02-19T01:06:07.944Z,7.40
2019-02-19T01:08:36.220Z,6.80
2019-02-19T01:11:04.543Z,5.87
2019-02-19T01:13:32.810Z,5.77
2019-02-19T01:16:01.092Z,6.73
2019-02-19T01:18:29.397Z,6.03
2019-02-19T01:20:57.667Z,6.90
2019-02-19T01:23:28.347Z,5.83
2019-02-19T01:25:56.610Z,6.53
2019-02-19T01:28:24.885Z,5.87
2019-02-19T01:30:56.384Z,6.20
2019-02-19T01:33:24.658Z,6.33
2019-02-19T01:35:52.952Z,6.27
2019-02-19T01:38:21.216Z,6.40
2019-02-19T01:40:49.493Z,6.13
2019-02-19T01:43:17.756Z,6.33
2019-02-19T01:45:46.597Z,6.73
2019-02-19T01:48:14.848Z,6.30
2019-02-19T01:50:43.122Z,5.83
2019-02-19T01:53:11.382Z,6.30
2019-02-19T01:55:39.638Z,6.17
2019-02-19T01:58:07.908Z,5.80
2019-02-19T02:00:36.367Z,6.07
2019-02-19T02:03:05.091Z,6.10
2019-02-19T02:05:33.361Z,6.57
2019-02-19T02:08:01.649Z,6.10
2019-02-19T02:10:29.910Z,6.73
2019-02-19T02:12:58.193Z,6.50
2019-02-19T02:15:26.466Z,6.10
2019-02-19T02:17:54.745Z,6.57
2019-02-19T02:20:23.037Z,5.60
2019-02-19T02:22:51.291Z,6.70
2019-02-19T02:25:19.542Z,6.33
2019-02-19T02:27:48.089Z,6.63
2019-02-19T02:30:16.365Z,5.87
2019-02-19T02:32:44.652Z,6.33
2019-02-19T02:35:13.099Z,6.50
2019-02-19T02:37:41.370Z,6.20
2019-02-19T02:40:09.983Z,7.30
2019-02-19T02:42:38.312Z,6.50
2019-02-19T02:45:06.642Z,7.20
2019-02-19T02:47:35.022Z,7.77
2019-02-19T02:50:03.751Z,6.93
2019-02-19T02:52:32.024Z,7.10
2019-02-19T02:55:00.423Z,7.27
2019-02-19T02:57:28.699Z,7.40
2019-02-19T02:59:56.969Z,7.07
2019-02-19T03:02:25.252Z,6.97
2019-02-19T03:04:53.515Z,7.67
2019-02-19T03:07:23.438Z,6.00
2019-02-19T03:09:51.714Z,6.50
2019-02-19T03:12:19.991Z,6.97
2019-02-19T03:14:48.254Z,6.70
2019-02-19T03:20:17.910Z,6.40
2019-02-19T03:22:46.172Z,6.70
2019-02-19T03:25:14.440Z,7.17
2019-02-19T03:27:42.705Z,6.63
2019-02-19T03:30:11.206Z,7.07
2019-02-19T03:32:39.458Z,6.67
2019-02-19T03:35:07.793Z,6.83
2019-02-19T03:37:36.039Z,7.13
2019-02-19T03:40:07.531Z,5.93
2019-02-19T03:42:35.467Z,6.50
2019-02-19T03:45:06.025Z,6.93
2019-02-19T03:47:34.414Z,6.27
2019-02-19T03:50:02.862Z,6.50
2019-02-19T03:52:31.952Z,6.40
2019-02-19T03:55:00.380Z,6.83
2019-02-19T03:57:28.680Z,6.50
2019-02-19T04:00:00.342Z,6.97
2019-02-19T04:02:28.583Z,6.53
2019-02-19T04:04:56.915Z,7.30
2019-02-19T04:07:25.192Z,8.33
2019-02-19T04:09:53.534Z,7.20
2019-02-19T04:12:21.799Z,6.67
2019-02-19T04:14:50.052Z,6.43
2019-02-19T04:17:18.326Z,7.23
2019-02-19T04:19:46.601Z,6.70
2019-02-19T04:22:14.863Z,6.87
2019-02-19T04:24:43.113Z,6.80
2019-02-19T04:27:11.368Z,6.90
2019-02-19T04:29:42.693Z,6.53
2019-02-19T04:32:10.948Z,6.40
2019-02-19T04:34:39.207Z,6.80
2019-02-19T04:37:07.461Z,5.90
2019-02-19T04:39:35.744Z,8.40
2019-02-19T04:42:04.262Z,6.20
2019-02-19T04:44:32.783Z,6.73
2019-02-19T04:47:01.437Z,6.53
2019-02-19T04:49:29.675Z,7.80
2019-02-19T04:51:57.953Z,7.10
2019-02-19T04:54:26.217Z,6.70
2019-02-19T04:56:54.466Z,6.53
2019-02-19T04:59:22.745Z,6.60
2019-02-19T05:01:51.014Z,6.63
2019-02-19T05:04:19.309Z,7.17
2019-02-19T05:06:47.571Z,7.40
2019-02-19T05:09:15.844Z,6.50
2019-02-19T05:11:44.116Z,6.53
2019-02-19T05:14:12.370Z,6.40
2019-02-19T05:16:41.286Z,6.37
2019-02-19T05:19:09.674Z,7.20
2019-02-19T05:21:48.213Z,7.60
2019-02-19T05:24:16.476Z,7.33
2019-02-19T05:26:44.742Z,7.40
2019-02-19T05:29:12.995Z,7.70
2019-02-19T05:31:41.264Z,7.43
2019-02-19T05:34:09.525Z,7.07
2019-02-19T05:36:37.802Z,6.50
2019-02-19T05:39:06.343Z,6.97
2019-02-19T05:41:34.616Z,7.43
2019-02-19T05:44:02.876Z,6.50
2019-02-19T05:46:31.145Z,7.33
2019-02-19T05:48:59.416Z,6.40
2019-02-19T05:51:27.673Z,6.90
2019-02-19T05:53:56.370Z,6.97
2019-02-19T05:56:24.573Z,6.23
2019-02-19T05:58:52.842Z,6.90
2019-02-19T06:01:21.114Z,6.60
2019-02-19T06:03:49.443Z,7.10
2019-02-19T06:06:17.707Z,7.63
2019-02-19T06:08:46.001Z,6.77
2019-02-19T06:11:14.295Z,7.33
2019-02-19T06:13:42.573Z,6.67
2019-02-19T06:16:10.860Z,8.03
2019-02-19T06:18:39.192Z,7.10
2019-02-19T06:21:07.986Z,7.10
2019-02-19T06:23:36.760Z,7.47
2019-02-19T06:26:05.039Z,6.77
2019-02-19T06:28:33.351Z,6.90
2019-02-19T06:31:01.631Z,7.27
2019-02-19T06:33:29.963Z,7.10
2019-02-19T06:35:58.336Z,7.20
2019-02-19T06:38:26.653Z,7.07
2019-02-19T06:41:02.783Z,7.30
2019-02-19T06:43:34.078Z,8.07
2019-02-19T06:46:02.741Z,7.60
2019-02-19T06:48:31.140Z,7.20
2019-02-19T06:50:59.554Z,7.50
2019-02-19T06:53:27.886Z,7.80
2019-02-19T06:55:56.201Z,8.40
2019-02-19T06:58:24.527Z,8.20
2019-02-19T07:00:52.844Z,8.17
2019-02-19T07:03:25.508Z,7.77
2019-02-19T07:05:53.951Z,8.47
2019-02-19T07:08:22.296Z,8.63
2019-02-19T07:10:50.621Z,7.67
2019-02-19T07:13:18.964Z,8.23
2019-02-19T07:15:47.255Z,8.37
2019-02-19T07:18:15.661Z,9.23
2019-02-19T07:20:43.945Z,8.70
2019-02-19T07:23:12.270Z,8.63
2019-02-19T07:25:40.603Z,8.30
2019-02-19T07:28:09.026Z,8.83
2019-02-19T07:30:37.455Z,8.90
2019-02-19T07:33:05.847Z,9.50
2019-02-19T07:35:34.179Z,9.03
2019-02-19T07:38:02.585Z,9.10
2019-02-19T07:40:30.937Z,10.60
2019-02-19T07:43:00.752Z,9.13
2019-02-19T07:45:29.315Z,9.40
2019-02-19T07:47:57.593Z,8.80
2019-02-19T07:50:26.059Z,8.93
2019-02-19T07:52:54.429Z,9.70
2019-02-19T07:55:22.805Z,8.63
2019-02-19T07:57:51.219Z,8.30
2019-02-19T08:00:19.661Z,9.47
2019-02-19T08:02:47.959Z,9.00
2019-02-19T08:05:16.339Z,8.83
2019-02-19T08:07:44.668Z,9.20
2019-02-19T08:10:14.483Z,8.40
2019-02-19T08:12:42.818Z,9.13
2019-02-19T08:15:11.934Z,9.00
2019-02-19T08:17:40.354Z,8.23
2019-02-19T08:20:16.010Z,9.60
2019-02-19T08:22:40.260Z,9.17
2019-02-19T08:25:08.650Z,9.77
2019-02-19T08:27:36.986Z,9.50
2019-02-19T08:30:08.255Z,10.30
2019-02-19T08:32:36.556Z,9.40
2019-02-19T08:35:06.434Z,9.13
2019-02-19T08:37:34.750Z,9.03
2019-02-19T08:40:03.152Z,9.30
2019-02-19T08:42:31.608Z,10.07
2019-02-19T08:45:00.962Z,9.67
2019-02-19T08:47:29.316Z,9.33
2019-02-19T08:49:58.939Z,10.30
2019-02-19T08:52:27.270Z,9.20
2019-02-19T08:54:55.552Z,9.83
2019-02-19T08:57:23.966Z,10.23
2019-02-19T08:59:52.319Z,10.57
2019-02-19T09:02:20.754Z,10.97
2019-02-19T09:04:49.255Z,10.17
2019-02-19T09:07:17.591Z,10.63
2019-02-19T09:09:47.564Z,11.00
2019-02-19T09:12:15.872Z,10.77
2019-02-19T09:14:44.203Z,11.20
2019-02-19T09:17:12.633Z,11.90
2019-02-19T09:19:41.044Z,10.50
2019-02-19T09:22:09.530Z,11.93
2019-02-19T09:24:37.867Z,11.37
2019-02-19T09:27:06.259Z,11.37
2019-02-19T09:29:34.681Z,11.37
2019-02-19T09:32:03.058Z,12.70
2019-02-19T09:34:31.393Z,11.10
2019-02-19T09:36:59.837Z,12.10
2019-02-19T09:39:28.143Z,10.97
2019-02-19T09:41:56.497Z,11.43
2019-02-19T09:44:25.034Z,11.20
2019-02-19T09:46:53.377Z,13.03
2019-02-19T09:49:21.703Z,12.77
2019-02-19T09:51:50.079Z,12.80
2019-02-19T09:54:18.402Z,13.37
2019-02-19T09:56:46.713Z,12.37
2019-02-19T09:59:15.133Z,12.30
2019-02-19T10:01:43.436Z,12.83
2019-02-19T10:04:11.757Z,11.23
2019-02-19T10:06:41.736Z,12.50
2019-02-19T10:09:10.065Z,11.60
2019-02-19T10:11:38.435Z,11.83
2019-02-19T10:14:06.944Z,15.00
2019-02-19T10:16:41.453Z,12.70
2019-02-19T10:19:05.372Z,12.83
2019-02-19T10:21:33.696Z,12.67
2019-02-19T10:24:02.021Z,11.43
2019-02-19T10:26:30.374Z,11.70
2019-02-19T10:29:07.209Z,11.77
2019-02-19T10:31:47.550Z,11.70
2019-02-19T10:34:15.889Z,12.00
2019-02-19T10:36:44.221Z,11.87
2019-02-19T10:39:12.744Z,12.87
2019-02-19T10:41:41.699Z,12.50
2019-02-19T10:44:09.992Z,11.73
2019-02-19T10:46:38.362Z,11.67
2019-02-19T10:49:06.717Z,12.33
2019-02-19T10:51:35.257Z,12.13
2019-02-19T10:54:03.487Z,12.00
2019-02-19T10:56:33.803Z,12.20
2019-02-19T10:59:02.195Z,11.77
2019-02-19T11:01:30.716Z,11.50
2019-02-19T11:03:59.042Z,12.03
2019-02-19T11:06:27.302Z,12.43
2019-02-19T11:08:55.748Z,12.40
2019-02-19T11:11:24.036Z,11.60
2019-02-19T11:13:52.668Z,12.53
2019-02-19T11:16:21.094Z,11.80
2019-02-19T11:18:51.839Z,12.90
2019-02-19T11:21:20.375Z,12.30
2019-02-19T11:23:48.688Z,12.17
2019-02-19T11:26:21.717Z,12.53
2019-02-19T11:28:50.010Z,12.20
2019-02-19T11:31:18.405Z,12.10
2019-02-19T11:33:46.708Z,12.33
2019-02-19T11:36:15.021Z,11.70
2019-02-19T11:38:43.360Z,11.60
2019-02-19T11:41:19.153Z,11.40
2019-02-19T11:43:47.526Z,11.40
2019-02-19T11:46:15.840Z,11.13
2019-02-19T11:48:44.139Z,11.00
2019-02-19T11:51:12.438Z,10.07
2019-02-19T11:53:40.751Z,10.30
2019-02-19T11:56:09.088Z,10.63
2019-02-19T11:58:37.366Z,9.20
2019-02-19T12:01:06.183Z,9.50
2019-02-19T12:03:34.508Z,9.60
2019-02-19T12:06:02.841Z,9.80
2019-02-19T12:08:38.894Z,9.83
2019-02-19T12:11:01.294Z,10.10
2019-02-19T12:13:29.590Z,9.00
2019-02-19T12:15:57.982Z,8.57
2019-02-19T12:18:26.266Z,8.03
2019-02-19T12:20:54.562Z,8.97
2019-02-19T12:23:22.920Z,9.10
2019-02-19T12:25:53.712Z,7.70
2019-02-19T12:28:23.219Z,8.37
2019-02-19T12:30:51.507Z,7.43
2019-02-19T12:33:19.979Z,7.90
2019-02-19T12:35:48.247Z,8.10
2019-02-19T12:38:16.555Z,6.57
2019-02-19T12:40:44.979Z,7.97
2019-02-19T12:43:13.282Z,7.90
2019-02-19T12:45:41.663Z,7.33
2019-02-19T12:48:10.008Z,6.77
2019-02-19T12:50:38.327Z,6.43
2019-02-19T12:53:06.595Z,6.30
2019-02-19T12:55:34.883Z,6.93
2019-02-19T12:58:03.268Z,6.73
2019-02-19T13:00:32.130Z,6.73
2019-02-19T13:03:00.639Z,6.00
2019-02-19T13:05:29.192Z,6.60
2019-02-19T13:07:57.511Z,7.13
2019-02-19T13:10:25.916Z,7.43
2019-02-19T13:12:54.364Z,8.30
2019-02-19T13:15:22.956Z,8.10
2019-02-19T13:17:51.366Z,7.90
2019-02-19T13:20:19.641Z,7.03
2019-02-19T13:22:48.073Z,7.03
2019-02-19T13:25:16.737Z,7.70
2019-02-19T13:27:45.615Z,7.80
2019-02-19T13:30:16.848Z,6.70
2019-02-19T13:32:45.153Z,6.50
2019-02-19T13:35:14.180Z,6.60
2019-02-19T13:37:43.356Z,6.73
2019-02-19T13:40:13.908Z,6.07
2019-02-19T13:42:42.563Z,6.97
2019-02-19T13:45:13.884Z,6.23
2019-02-19T13:47:43.123Z,6.77
2019-02-19T13:50:17.141Z,5.93
2019-02-19T13:52:47.076Z,6.13
2019-02-19T13:55:17.170Z,7.20
2019-02-19T13:57:45.529Z,6.43
2019-02-19T14:00:15.569Z,6.63
2019-02-19T14:02:44.754Z,7.10
2019-02-19T14:05:13.120Z,6.63
2019-02-19T14:07:41.423Z,6.43
2019-02-19T14:10:11.354Z,6.80
2019-02-19T14:12:39.700Z,7.63
2019-02-19T14:15:11.990Z,6.50
2019-02-19T14:17:40.406Z,7.40
2019-02-19T14:20:10.483Z,6.70
2019-02-19T14:22:43.241Z,7.30
2019-02-19T14:25:31.680Z,5.60
2019-02-19T14:28:10.810Z,5.83
2019-02-19T14:30:40.781Z,4.57
2019-02-19T14:33:10.763Z,4.17
2019-02-19T14:35:40.685Z,4.03
2019-02-19T14:38:16.952Z,3.00
2019-02-19T14:41:05.116Z,3.47
2019-02-19T14:43:41.525Z,2.90
2019-02-19T14:46:23.299Z,2.63
2019-02-19T14:49:09.179Z,3.00
2019-02-19T14:51:55.588Z,3.50
2019-02-19T14:54:40.653Z,3.13
2019-02-19T14:57:19.580Z,2.53
2019-02-19T15:00:10.772Z,3.00
2019-02-19T15:02:59.642Z,2.60
2019-02-19T15:05:45.584Z,2.57
2019-02-19T15:08:33.564Z,2.90
2019-02-19T15:11:05.940Z,3.10
2019-02-19T15:13:48.176Z,3.20
2019-02-19T15:16:18.181Z,3.40
2019-02-19T15:19:04.293Z,3.60
2019-02-19T15:21:52.362Z,3.87
2019-02-19T15:24:22.367Z,3.77
2019-02-19T15:26:52.321Z,3.87
2019-02-19T15:29:34.222Z,3.90
2019-02-19T15:32:07.319Z,4.20
2019-02-19T15:34:37.245Z,3.53
2019-02-19T15:37:16.492Z,3.70
2019-02-19T15:39:58.375Z,3.40
2019-02-19T15:42:28.542Z,4.00
2019-02-19T15:45:16.670Z,3.90
2019-02-19T15:48:01.916Z,4.27
2019-02-19T15:50:48.052Z,3.40
2019-02-19T15:56:17.633Z,3.63
2019-02-19T15:58:55.992Z,4.80
2019-02-19T16:01:30.658Z,4.70
2019-02-19T16:04:08.131Z,7.00
2019-02-19T16:06:54.190Z,5.37
2019-02-19T16:09:32.934Z,4.77
2019-02-19T16:12:05.471Z,4.53
2019-02-19T16:14:43.932Z,4.13
2019-02-19T16:17:19.861Z,3.80
2019-02-19T16:19:56.790Z,4.80
2019-02-19T16:22:24.556Z,4.13
2019-02-19T16:28:04.833Z,4.97
2019-02-19T16:30:43.735Z,5.30
2019-02-19T16:33:30.263Z,4.57
2019-02-19T16:36:03.170Z,3.30
2019-02-19T16:38:38.822Z,4.03
2019-02-19T16:41:08.830Z,2.80
2019-02-19T16:43:44.827Z,3.20
2019-02-19T16:46:17.602Z,4.07
2019-02-19T16:48:50.205Z,3.00
2019-02-19T16:51:28.727Z,2.40
2019-02-19T16:54:04.576Z,2.40
2019-02-19T16:56:34.611Z,2.53
2019-02-19T16:59:07.966Z,2.43
2019-02-19T17:01:54.302Z,3.47
2019-02-19T17:04:27.275Z,2.00
2019-02-19T17:06:57.545Z,2.50
2019-02-19T17:09:27.600Z,2.80
2019-02-19T17:11:57.600Z,2.80
2019-02-19T17:14:39.379Z,3.10
2019-02-19T17:17:15.206Z,2.17
2019-02-19T17:22:35.491Z,2.73
2019-02-19T17:25:16.185Z,2.53
2019-02-19T17:28:09.792Z,3.17
2019-02-19T17:30:55.966Z,3.17
2019-02-19T17:33:25.953Z,4.10
2019-02-19T17:36:14.904Z,4.17
2019-02-19T17:38:44.803Z,4.60
2019-02-19T17:41:31.337Z,4.00
2019-02-19T17:44:10.374Z,3.97
2019-02-19T17:46:45.998Z,3.73
2019-02-19T17:49:15.952Z,3.40
2019-02-19T17:51:48.829Z,3.60
2019-02-19T17:54:19.435Z,4.23
2019-02-19T17:57:06.162Z,4.10
2019-02-19T17:59:41.696Z,3.90
2019-02-19T18:02:14.694Z,4.57
2019-02-19T18:04:50.102Z,4.17
2019-02-19T18:07:35.048Z,4.07
2019-02-19T18:10:05.295Z,3.90
2019-02-19T18:12:41.227Z,4.47
2019-02-19T18:15:26.724Z,4.23
2019-02-19T18:18:02.335Z,4.60
2019-02-19T18:20:30.707Z,4.30
2019-02-19T18:22:59.036Z,4.50
2019-02-19T18:25:27.521Z,4.33
2019-02-19T18:27:55.889Z,5.10
2019-02-19T18:30:24.266Z,4.43
2019-02-19T18:32:52.580Z,4.57
2019-02-19T18:35:21.132Z,4.73
2019-02-19T18:41:18.357Z,4.53
2019-02-19T18:47:17.089Z,4.67
2019-02-19T18:49:48.458Z,4.20
2019-02-19T18:52:16.718Z,5.53
2019-02-19T18:54:45.023Z,4.77
2019-02-19T18:57:13.313Z,4.13
2019-02-19T18:59:41.647Z,5.70
2019-02-19T19:02:09.934Z,5.20
2019-02-19T19:04:38.567Z,5.50
2019-02-19T19:07:06.869Z,5.80
2019-02-19T19:09:35.171Z,5.80
2019-02-19T19:12:03.529Z,4.87
2019-02-19T19:14:31.833Z,6.00
2019-02-19T19:17:00.126Z,5.50
2019-02-19T19:19:28.422Z,5.97
2019-02-19T19:21:56.704Z,5.20
2019-02-19T19:24:25.007Z,5.27
2019-02-19T19:26:53.424Z,5.87
2019-02-19T19:29:21.710Z,5.30
2019-02-19T19:31:50.222Z,5.30
2019-02-19T19:34:18.657Z,5.60
2019-02-19T19:36:46.937Z,6.60
2019-02-19T19:39:15.324Z,6.10
2019-02-19T19:41:43.657Z,6.40
2019-02-19T19:44:11.993Z,6.17
2019-02-19T19:46:41.182Z,6.67
2019-02-19T19:49:09.518Z,7.40
2019-02-19T19:51:37.844Z,7.10
2019-02-19T19:54:06.129Z,7.03
2019-02-19T19:56:34.413Z,7.00
2019-02-19T19:59:02.717Z,6.67
2019-02-19T20:01:31.163Z,7.77
2019-02-19T20:03:59.424Z,7.03
2019-02-19T20:06:27.823Z,7.77
2019-02-19T20:08:56.122Z,8.07
2019-02-19T20:11:24.409Z,7.50
2019-02-19T20:13:52.791Z,7.80
2019-02-19T20:16:21.521Z,7.27
2019-02-19T20:18:49.962Z,6.83
2019-02-19T20:21:26.488Z,7.57
2019-02-19T20:23:49.983Z,7.90
2019-02-19T20:26:19.162Z,6.70
2019-02-19T20:28:47.916Z,6.63
2019-02-19T20:31:16.874Z,6.73
2019-02-19T20:33:45.660Z,6.73
2019-02-19T20:36:13.913Z,7.03
2019-02-19T20:38:42.670Z,7.00
2019-02-19T20:41:11.096Z,6.13
2019-02-19T20:43:39.375Z,6.77
2019-02-19T20:46:08.378Z,7.30
2019-02-19T20:48:37.001Z,7.03
2019-02-19T20:51:05.319Z,8.10
2019-02-19T20:53:33.645Z,7.20
2019-02-19T20:56:02.528Z,7.10
2019-02-19T20:58:30.821Z,7.70
2019-02-19T21:00:59.125Z,7.03
2019-02-19T21:03:27.426Z,6.60
2019-02-19T21:05:55.708Z,6.80
2019-02-19T21:08:24.063Z,7.63
2019-02-19T21:10:53.907Z,6.90
2019-02-19T21:13:22.406Z,7.00
2019-02-19T21:15:50.729Z,7.30
2019-02-19T21:18:20.320Z,7.40
2019-02-19T21:20:48.616Z,7.53
2019-02-19T21:23:17.158Z,7.43
2019-02-19T21:25:45.569Z,7.87
2019-02-19T21:28:13.934Z,7.53
2019-02-19T21:30:42.437Z,7.90
2019-02-19T21:33:11.186Z,7.70
2019-02-19T21:35:39.515Z,7.10
2019-02-19T21:38:10.939Z,8.03
2019-02-19T21:40:39.454Z,6.83
2019-02-19T21:43:07.855Z,6.93
2019-02-19T21:45:37.562Z,7.30
2019-02-19T21:48:05.888Z,7.60
2019-02-19T21:50:34.278Z,7.70
2019-02-19T21:53:02.588Z,7.40
2019-02-19T21:55:30.920Z,7.87
2019-02-19T21:57:59.797Z,12.97
2019-02-19T22:00:28.292Z,9.33
2019-02-19T22:02:56.703Z,7.47
2019-02-19T22:05:25.050Z,6.97
2019-02-19T22:07:53.339Z,7.13
2019-02-19T22:10:21.679Z,8.47
2019-02-19T22:12:50.045Z,8.70
2019-02-19T22:15:18.318Z,7.90
2019-02-19T22:17:46.624Z,9.70
2019-02-19T22:20:31.310Z,7.90
2019-02-19T22:22:59.636Z,7.50
2019-02-19T22:25:28.236Z,8.10
2019-02-19T22:27:56.557Z,7.60
2019-02-19T22:30:24.833Z,7.63
2019-02-19T22:32:53.218Z,6.60
2019-02-19T22:35:21.599Z,7.67
2019-02-19T22:37:49.922Z,7.50
2019-02-19T22:40:18.200Z,7.27
2019-02-19T22:42:46.537Z,7.10
2019-02-19T22:45:14.964Z,7.70
2019-02-19T22:47:43.243Z,8.80
2019-02-19T22:50:11.646Z,8.60
2019-02-19T22:52:39.909Z,7.47
2019-02-19T22:55:23.460Z,8.70
2019-02-19T22:57:51.876Z,6.80
2019-02-19T23:00:49.302Z,7.40
2019-02-19T23:03:19.307Z,7.13
2019-02-19T23:05:47.573Z,8.23
2019-02-19T23:08:15.889Z,7.53
2019-02-19T23:10:44.402Z,8.30
2019-02-19T23:13:12.681Z,7.70
2019-02-19T23:15:41.075Z,8.20
2019-02-19T23:18:09.366Z,8.40
2019-02-19T23:20:37.666Z,8.20
2019-02-19T23:23:05.974Z,9.30
2019-02-19T23:25:34.337Z,8.87
2019-02-19T23:28:02.776Z,8.63
2019-02-19T23:30:31.066Z,8.27
2019-02-19T23:32:59.374Z,9.00
2019-02-19T23:35:29.322Z,9.17
2019-02-19T23:37:57.713Z,9.20
2019-02-19T23:40:25.982Z,9.10
2019-02-19T23:42:54.244Z,7.97
2019-02-19T23:45:22.529Z,9.23
2019-02-19T23:47:50.836Z,9.73
2019-02-19T23:50:19.146Z,8.93
2019-02-19T23:52:47.415Z,8.90
2019-02-19T23:55:15.718Z,8.40
2019-02-19T23:57:44.024Z,8.47
